sensor_id;sensor_type;location;lat;lon;timestamp;pressure;altitude;pressure_sealevel;temperature
19644;BMP180;9970;-36.854;174.870;2023-07-02T00:00:09;99382.00;;;13.50
19644;BMP180;9970;-36.854;174.870;2023-07-02T00:02:42;99377.00;;;13.50
19644;BMP180;9970;-36.854;174.870;2023-07-02T00:05:15;99384.00;;;13.50
19644;BMP180;9970;-36.854;174.870;2023-07-02T00:07:49;99386.00;;;13.50
19644;BMP180;9970;-36.854;174.870;2023-07-02T00:10:22;99375.00;;;13.50
19644;BMP180;9970;-36.854;174.870;2023-07-02T00:12:55;99378.00;;;13.60
19644;BMP180;9970;-36.854;174.870;2023-07-02T00:15:28;99370.00;;;13.60
19644;BMP180;9970;-36.854;174.870;2023-07-02T00:18:01;99390.00;;;13.50
19644;BMP180;9970;-36.854;174.870;2023-07-02T00:20:34;99373.00;;;13.50
19644;BMP180;9970;-36.854;174.870;2023-07-02T00:23:09;99373.00;;;13.40
19644;BMP180;9970;-36.854;174.870;2023-07-02T00:25:42;99364.00;;;13.40
19644;BMP180;9970;-36.854;174.870;2023-07-02T00:28:19;99367.00;;;13.40
19644;BMP180;9970;-36.854;174.870;2023-07-02T00:30:53;99357.00;;;13.40
19644;BMP180;9970;-36.854;174.870;2023-07-02T00:33:29;99365.00;;;13.40
19644;BMP180;9970;-36.854;174.870;2023-07-02T00:36:02;99369.00;;;13.40
19644;BMP180;9970;-36.854;174.870;2023-07-02T00:38:35;99363.00;;;13.40
19644;BMP180;9970;-36.854;174.870;2023-07-02T00:41:08;99371.00;;;13.40
19644;BMP180;9970;-36.854;174.870;2023-07-02T00:43:44;99374.00;;;13.50
19644;BMP180;9970;-36.854;174.870;2023-07-02T00:46:22;99370.00;;;13.50
19644;BMP180;9970;-36.854;174.870;2023-07-02T00:48:57;99361.00;;;13.50
19644;BMP180;9970;-36.854;174.870;2023-07-02T00:51:31;99360.00;;;13.40
19644;BMP180;9970;-36.854;174.870;2023-07-02T00:54:05;99352.00;;;13.50
19644;BMP180;9970;-36.854;174.870;2023-07-02T00:56:38;99344.00;;;13.50
19644;BMP180;9970;-36.854;174.870;2023-07-02T00:59:25;99337.00;;;13.50
19644;BMP180;9970;-36.854;174.870;2023-07-02T01:01:55;99330.00;;;13.50
19644;BMP180;9970;-36.854;174.870;2023-07-02T01:04:28;99326.00;;;13.50
19644;BMP180;9970;-36.854;174.870;2023-07-02T01:07:01;99327.00;;;13.50
19644;BMP180;9970;-36.854;174.870;2023-07-02T01:09:36;99326.00;;;13.50
19644;BMP180;9970;-36.854;174.870;2023-07-02T01:12:11;99326.00;;;13.50
19644;BMP180;9970;-36.854;174.870;2023-07-02T01:14:51;99328.00;;;13.50
19644;BMP180;9970;-36.854;174.870;2023-07-02T01:17:26;99304.00;;;13.50
19644;BMP180;9970;-36.854;174.870;2023-07-02T01:20:00;99315.00;;;13.50
19644;BMP180;9970;-36.854;174.870;2023-07-02T01:22:33;99300.00;;;13.50
19644;BMP180;9970;-36.854;174.870;2023-07-02T01:25:07;99296.00;;;13.50
19644;BMP180;9970;-36.854;174.870;2023-07-02T01:27:41;99293.00;;;13.50
19644;BMP180;9970;-36.854;174.870;2023-07-02T01:30:14;99309.00;;;13.50
19644;BMP180;9970;-36.854;174.870;2023-07-02T01:32:47;99296.00;;;13.50
19644;BMP180;9970;-36.854;174.870;2023-07-02T01:35:20;99310.00;;;13.50
19644;BMP180;9970;-36.854;174.870;2023-07-02T01:37:54;99297.00;;;13.50
19644;BMP180;9970;-36.854;174.870;2023-07-02T01:40:27;99286.00;;;13.50
19644;BMP180;9970;-36.854;174.870;2023-07-02T01:43:00;99282.00;;;13.50
19644;BMP180;9970;-36.854;174.870;2023-07-02T01:45:37;99273.00;;;13.50
19644;BMP180;9970;-36.854;174.870;2023-07-02T01:48:10;99268.00;;;13.50
19644;BMP180;9970;-36.854;174.870;2023-07-02T01:50:43;99263.00;;;13.50
19644;BMP180;9970;-36.854;174.870;2023-07-02T01:53:17;99266.00;;;13.50
19644;BMP180;9970;-36.854;174.870;2023-07-02T01:55:50;99263.00;;;13.50
19644;BMP180;9970;-36.854;174.870;2023-07-02T01:58:23;99265.00;;;13.50
19644;BMP180;9970;-36.854;174.870;2023-07-02T02:04:02;99259.00;;;13.50
19644;BMP180;9970;-36.854;174.870;2023-07-02T02:06:36;99248.00;;;13.50
19644;BMP180;9970;-36.854;174.870;2023-07-02T02:09:10;99247.00;;;13.50
19644;BMP180;9970;-36.854;174.870;2023-07-02T02:11:45;99255.00;;;13.40
19644;BMP180;9970;-36.854;174.870;2023-07-02T02:14:18;99253.00;;;13.40
19644;BMP180;9970;-36.854;174.870;2023-07-02T02:16:53;99248.00;;;13.40
19644;BMP180;9970;-36.854;174.870;2023-07-02T02:19:26;99255.00;;;13.40
19644;BMP180;9970;-36.854;174.870;2023-07-02T02:21:59;99257.00;;;13.40
19644;BMP180;9970;-36.854;174.870;2023-07-02T02:24:33;99259.00;;;13.40
19644;BMP180;9970;-36.854;174.870;2023-07-02T02:27:06;99256.00;;;13.40
19644;BMP180;9970;-36.854;174.870;2023-07-02T02:29:40;99256.00;;;13.40
19644;BMP180;9970;-36.854;174.870;2023-07-02T02:32:13;99245.00;;;13.40
19644;BMP180;9970;-36.854;174.870;2023-07-02T02:34:47;99246.00;;;13.30
19644;BMP180;9970;-36.854;174.870;2023-07-02T02:37:21;99247.00;;;13.30
19644;BMP180;9970;-36.854;174.870;2023-07-02T02:39:54;99248.00;;;13.30
19644;BMP180;9970;-36.854;174.870;2023-07-02T02:42:33;99247.00;;;13.20
19644;BMP180;9970;-36.854;174.870;2023-07-02T02:45:07;99230.00;;;13.20
19644;BMP180;9970;-36.854;174.870;2023-07-02T02:47:41;99221.00;;;13.10
19644;BMP180;9970;-36.854;174.870;2023-07-02T02:50:15;99211.00;;;13.10
19644;BMP180;9970;-36.854;174.870;2023-07-02T02:52:48;99217.00;;;13.10
19644;BMP180;9970;-36.854;174.870;2023-07-02T02:55:22;99219.00;;;13.00
19644;BMP180;9970;-36.854;174.870;2023-07-02T02:57:59;99225.00;;;13.00
19644;BMP180;9970;-36.854;174.870;2023-07-02T03:00:32;99206.00;;;12.90
19644;BMP180;9970;-36.854;174.870;2023-07-02T03:03:05;99229.00;;;12.90
19644;BMP180;9970;-36.854;174.870;2023-07-02T03:05:39;99247.00;;;12.90
19644;BMP180;9970;-36.854;174.870;2023-07-02T03:08:12;99270.00;;;12.80
19644;BMP180;9970;-36.854;174.870;2023-07-02T03:10:46;99325.00;;;12.80
19644;BMP180;9970;-36.854;174.870;2023-07-02T03:13:19;99349.00;;;12.80
19644;BMP180;9970;-36.854;174.870;2023-07-02T03:15:52;99349.00;;;12.70
19644;BMP180;9970;-36.854;174.870;2023-07-02T03:18:27;99322.00;;;12.60
19644;BMP180;9970;-36.854;174.870;2023-07-02T03:21:00;99300.00;;;12.50
19644;BMP180;9970;-36.854;174.870;2023-07-02T03:23:34;99287.00;;;12.50
19644;BMP180;9970;-36.854;174.870;2023-07-02T03:26:10;99279.00;;;12.40
19644;BMP180;9970;-36.854;174.870;2023-07-02T03:28:45;99268.00;;;12.40
19644;BMP180;9970;-36.854;174.870;2023-07-02T03:31:18;99273.00;;;12.40
19644;BMP180;9970;-36.854;174.870;2023-07-02T03:33:51;99262.00;;;12.40
19644;BMP180;9970;-36.854;174.870;2023-07-02T03:36:24;99257.00;;;12.40
19644;BMP180;9970;-36.854;174.870;2023-07-02T03:38:57;99259.00;;;12.30
19644;BMP180;9970;-36.854;174.870;2023-07-02T03:41:31;99257.00;;;12.30
19644;BMP180;9970;-36.854;174.870;2023-07-02T03:44:04;99253.00;;;12.30
19644;BMP180;9970;-36.854;174.870;2023-07-02T03:46:42;99251.00;;;12.30
19644;BMP180;9970;-36.854;174.870;2023-07-02T03:49:15;99261.00;;;12.30
19644;BMP180;9970;-36.854;174.870;2023-07-02T03:51:49;99262.00;;;12.30
19644;BMP180;9970;-36.854;174.870;2023-07-02T03:54:21;99265.00;;;12.20
19644;BMP180;9970;-36.854;174.870;2023-07-02T03:56:55;99270.00;;;12.20
19644;BMP180;9970;-36.854;174.870;2023-07-02T03:59:28;99274.00;;;12.20
19644;BMP180;9970;-36.854;174.870;2023-07-02T04:02:01;99263.00;;;12.20
19644;BMP180;9970;-36.854;174.870;2023-07-02T04:04:34;99266.00;;;12.10
19644;BMP180;9970;-36.854;174.870;2023-07-02T04:07:07;99264.00;;;12.10
19644;BMP180;9970;-36.854;174.870;2023-07-02T04:09:40;99261.00;;;12.10
19644;BMP180;9970;-36.854;174.870;2023-07-02T04:12:18;99267.00;;;12.10
19644;BMP180;9970;-36.854;174.870;2023-07-02T04:14:51;99275.00;;;12.10
19644;BMP180;9970;-36.854;174.870;2023-07-02T04:17:24;99275.00;;;12.10
19644;BMP180;9970;-36.854;174.870;2023-07-02T04:19:59;99278.00;;;12.10
19644;BMP180;9970;-36.854;174.870;2023-07-02T04:22:33;99283.00;;;12.10
19644;BMP180;9970;-36.854;174.870;2023-07-02T04:25:07;99267.00;;;12.10
19644;BMP180;9970;-36.854;174.870;2023-07-02T04:27:41;99280.00;;;12.10
19644;BMP180;9970;-36.854;174.870;2023-07-02T04:30:16;99288.00;;;12.10
19644;BMP180;9970;-36.854;174.870;2023-07-02T04:32:49;99264.00;;;12.10
19644;BMP180;9970;-36.854;174.870;2023-07-02T04:35:22;99269.00;;;12.10
19644;BMP180;9970;-36.854;174.870;2023-07-02T04:37:56;99271.00;;;12.10
19644;BMP180;9970;-36.854;174.870;2023-07-02T04:40:29;99269.00;;;12.10
19644;BMP180;9970;-36.854;174.870;2023-07-02T04:43:02;99256.00;;;12.10
19644;BMP180;9970;-36.854;174.870;2023-07-02T04:45:36;99268.00;;;12.00
19644;BMP180;9970;-36.854;174.870;2023-07-02T04:48:10;99263.00;;;12.00
19644;BMP180;9970;-36.854;174.870;2023-07-02T04:50:44;99262.00;;;12.00
19644;BMP180;9970;-36.854;174.870;2023-07-02T04:53:18;99281.00;;;12.00
19644;BMP180;9970;-36.854;174.870;2023-07-02T04:55:51;99281.00;;;12.00
19644;BMP180;9970;-36.854;174.870;2023-07-02T04:58:24;99289.00;;;12.00
19644;BMP180;9970;-36.854;174.870;2023-07-02T05:00:57;99293.00;;;12.00
19644;BMP180;9970;-36.854;174.870;2023-07-02T05:03:30;99287.00;;;12.00
19644;BMP180;9970;-36.854;174.870;2023-07-02T05:06:04;99307.00;;;12.00
19644;BMP180;9970;-36.854;174.870;2023-07-02T05:08:37;99296.00;;;12.00
19644;BMP180;9970;-36.854;174.870;2023-07-02T05:11:11;99296.00;;;12.00
19644;BMP180;9970;-36.854;174.870;2023-07-02T05:13:45;99289.00;;;11.90
19644;BMP180;9970;-36.854;174.870;2023-07-02T05:16:18;99287.00;;;11.90
19644;BMP180;9970;-36.854;174.870;2023-07-02T05:18:52;99280.00;;;11.90
19644;BMP180;9970;-36.854;174.870;2023-07-02T05:21:27;99283.00;;;11.90
19644;BMP180;9970;-36.854;174.870;2023-07-02T05:24:01;99278.00;;;11.90
19644;BMP180;9970;-36.854;174.870;2023-07-02T05:26:34;99278.00;;;11.90
19644;BMP180;9970;-36.854;174.870;2023-07-02T05:29:08;99266.00;;;11.90
19644;BMP180;9970;-36.854;174.870;2023-07-02T05:31:41;99277.00;;;11.80
19644;BMP180;9970;-36.854;174.870;2023-07-02T05:34:14;99284.00;;;11.80
19644;BMP180;9970;-36.854;174.870;2023-07-02T05:36:48;99282.00;;;11.80
19644;BMP180;9970;-36.854;174.870;2023-07-02T05:39:21;99286.00;;;11.70
19644;BMP180;9970;-36.854;174.870;2023-07-02T05:41:54;99309.00;;;11.70
19644;BMP180;9970;-36.854;174.870;2023-07-02T05:44:28;99305.00;;;11.70
19644;BMP180;9970;-36.854;174.870;2023-07-02T05:47:01;99316.00;;;11.70
19644;BMP180;9970;-36.854;174.870;2023-07-02T05:52:36;99306.00;;;11.70
19644;BMP180;9970;-36.854;174.870;2023-07-02T05:55:09;99313.00;;;11.70
19644;BMP180;9970;-36.854;174.870;2023-07-02T05:57:43;99307.00;;;11.60
19644;BMP180;9970;-36.854;174.870;2023-07-02T06:00:16;99307.00;;;11.60
19644;BMP180;9970;-36.854;174.870;2023-07-02T06:02:50;99314.00;;;11.60
19644;BMP180;9970;-36.854;174.870;2023-07-02T06:05:23;99312.00;;;11.60
19644;BMP180;9970;-36.854;174.870;2023-07-02T06:07:56;99321.00;;;11.60
19644;BMP180;9970;-36.854;174.870;2023-07-02T06:10:30;99336.00;;;11.60
19644;BMP180;9970;-36.854;174.870;2023-07-02T06:13:04;99327.00;;;11.60
19644;BMP180;9970;-36.854;174.870;2023-07-02T06:15:37;99333.00;;;11.60
19644;BMP180;9970;-36.854;174.870;2023-07-02T06:18:10;99341.00;;;11.60
19644;BMP180;9970;-36.854;174.870;2023-07-02T06:20:57;99333.00;;;11.60
19644;BMP180;9970;-36.854;174.870;2023-07-02T06:23:39;99325.00;;;11.60
19644;BMP180;9970;-36.854;174.870;2023-07-02T06:26:16;99334.00;;;11.60
19644;BMP180;9970;-36.854;174.870;2023-07-02T06:31:43;99349.00;;;11.50
19644;BMP180;9970;-36.854;174.870;2023-07-02T06:34:13;99356.00;;;11.50
19644;BMP180;9970;-36.854;174.870;2023-07-02T06:36:46;99352.00;;;11.50
19644;BMP180;9970;-36.854;174.870;2023-07-02T06:39:21;99348.00;;;11.50
19644;BMP180;9970;-36.854;174.870;2023-07-02T06:41:55;99342.00;;;11.50
19644;BMP180;9970;-36.854;174.870;2023-07-02T06:44:28;99343.00;;;11.50
19644;BMP180;9970;-36.854;174.870;2023-07-02T06:47:01;99351.00;;;11.50
19644;BMP180;9970;-36.854;174.870;2023-07-02T06:49:34;99353.00;;;11.50
19644;BMP180;9970;-36.854;174.870;2023-07-02T06:52:07;99349.00;;;11.50
19644;BMP180;9970;-36.854;174.870;2023-07-02T06:54:41;99355.00;;;11.50
19644;BMP180;9970;-36.854;174.870;2023-07-02T06:57:14;99342.00;;;11.50
19644;BMP180;9970;-36.854;174.870;2023-07-02T06:59:48;99334.00;;;11.50
19644;BMP180;9970;-36.854;174.870;2023-07-02T07:02:22;99345.00;;;11.40
19644;BMP180;9970;-36.854;174.870;2023-07-02T07:05:00;99339.00;;;11.40
19644;BMP180;9970;-36.854;174.870;2023-07-02T07:07:30;99345.00;;;11.40
19644;BMP180;9970;-36.854;174.870;2023-07-02T07:10:03;99351.00;;;11.40
19644;BMP180;9970;-36.854;174.870;2023-07-02T07:12:36;99356.00;;;11.40
19644;BMP180;9970;-36.854;174.870;2023-07-02T07:15:10;99358.00;;;11.40
19644;BMP180;9970;-36.854;174.870;2023-07-02T07:17:43;99367.00;;;11.40
19644;BMP180;9970;-36.854;174.870;2023-07-02T07:20:16;99368.00;;;11.40
19644;BMP180;9970;-36.854;174.870;2023-07-02T07:22:50;99375.00;;;11.40
19644;BMP180;9970;-36.854;174.870;2023-07-02T07:25:23;99368.00;;;11.40
19644;BMP180;9970;-36.854;174.870;2023-07-02T07:27:56;99366.00;;;11.40
19644;BMP180;9970;-36.854;174.870;2023-07-02T07:30:29;99366.00;;;11.40
19644;BMP180;9970;-36.854;174.870;2023-07-02T07:33:10;99370.00;;;11.40
19644;BMP180;9970;-36.854;174.870;2023-07-02T07:35:40;99387.00;;;11.30
19644;BMP180;9970;-36.854;174.870;2023-07-02T07:38:14;99386.00;;;11.30
19644;BMP180;9970;-36.854;174.870;2023-07-02T07:40:47;99372.00;;;11.30
19644;BMP180;9970;-36.854;174.870;2023-07-02T07:43:20;99382.00;;;11.30
19644;BMP180;9970;-36.854;174.870;2023-07-02T07:48:31;99381.00;;;11.30
19644;BMP180;9970;-36.854;174.870;2023-07-02T07:51:04;99387.00;;;11.30
19644;BMP180;9970;-36.854;174.870;2023-07-02T07:53:38;99384.00;;;11.30
19644;BMP180;9970;-36.854;174.870;2023-07-02T07:56:11;99389.00;;;11.30
19644;BMP180;9970;-36.854;174.870;2023-07-02T07:58:44;99395.00;;;11.30
19644;BMP180;9970;-36.854;174.870;2023-07-02T08:01:21;99403.00;;;11.30
19644;BMP180;9970;-36.854;174.870;2023-07-02T08:03:55;99392.00;;;11.30
19644;BMP180;9970;-36.854;174.870;2023-07-02T08:06:28;99399.00;;;11.30
19644;BMP180;9970;-36.854;174.870;2023-07-02T08:09:06;99408.00;;;11.30
19644;BMP180;9970;-36.854;174.870;2023-07-02T08:11:40;99421.00;;;11.30
19644;BMP180;9970;-36.854;174.870;2023-07-02T08:14:13;99418.00;;;11.30
19644;BMP180;9970;-36.854;174.870;2023-07-02T08:16:47;99413.00;;;11.20
19644;BMP180;9970;-36.854;174.870;2023-07-02T08:19:20;99421.00;;;11.30
19644;BMP180;9970;-36.854;174.870;2023-07-02T08:21:54;99420.00;;;11.30
19644;BMP180;9970;-36.854;174.870;2023-07-02T08:24:28;99421.00;;;11.30
19644;BMP180;9970;-36.854;174.870;2023-07-02T08:27:02;99421.00;;;11.30
19644;BMP180;9970;-36.854;174.870;2023-07-02T08:29:35;99425.00;;;11.30
19644;BMP180;9970;-36.854;174.870;2023-07-02T08:32:09;99420.00;;;11.20
19644;BMP180;9970;-36.854;174.870;2023-07-02T08:34:42;99405.00;;;11.20
19644;BMP180;9970;-36.854;174.870;2023-07-02T08:37:15;99408.00;;;11.20
19644;BMP180;9970;-36.854;174.870;2023-07-02T08:39:49;99406.00;;;11.20
19644;BMP180;9970;-36.854;174.870;2023-07-02T08:42:23;99420.00;;;11.20
19644;BMP180;9970;-36.854;174.870;2023-07-02T08:44:58;99422.00;;;11.20
19644;BMP180;9970;-36.854;174.870;2023-07-02T08:47:32;99424.00;;;11.20
19644;BMP180;9970;-36.854;174.870;2023-07-02T08:50:05;99433.00;;;11.20
19644;BMP180;9970;-36.854;174.870;2023-07-02T08:52:42;99434.00;;;11.20
19644;BMP180;9970;-36.854;174.870;2023-07-02T08:55:19;99436.00;;;11.20
19644;BMP180;9970;-36.854;174.870;2023-07-02T08:57:57;99457.00;;;11.20
19644;BMP180;9970;-36.854;174.870;2023-07-02T09:00:31;99453.00;;;11.20
19644;BMP180;9970;-36.854;174.870;2023-07-02T09:03:18;99457.00;;;11.10
19644;BMP180;9970;-36.854;174.870;2023-07-02T09:05:52;99436.00;;;11.10
19644;BMP180;9970;-36.854;174.870;2023-07-02T09:08:33;99441.00;;;11.10
19644;BMP180;9970;-36.854;174.870;2023-07-02T09:11:16;99452.00;;;11.10
19644;BMP180;9970;-36.854;174.870;2023-07-02T09:13:56;99466.00;;;11.10
19644;BMP180;9970;-36.854;174.870;2023-07-02T09:16:33;99469.00;;;11.10
19644;BMP180;9970;-36.854;174.870;2023-07-02T09:19:08;99464.00;;;11.10
19644;BMP180;9970;-36.854;174.870;2023-07-02T09:21:44;99457.00;;;11.10
19644;BMP180;9970;-36.854;174.870;2023-07-02T09:24:26;99457.00;;;11.10
19644;BMP180;9970;-36.854;174.870;2023-07-02T09:26:57;99456.00;;;11.10
19644;BMP180;9970;-36.854;174.870;2023-07-02T09:29:31;99459.00;;;11.10
19644;BMP180;9970;-36.854;174.870;2023-07-02T09:32:08;99448.00;;;11.10
19644;BMP180;9970;-36.854;174.870;2023-07-02T09:34:45;99441.00;;;11.10
19644;BMP180;9970;-36.854;174.870;2023-07-02T09:37:18;99446.00;;;11.10
19644;BMP180;9970;-36.854;174.870;2023-07-02T09:39:54;99442.00;;;11.10
19644;BMP180;9970;-36.854;174.870;2023-07-02T09:42:28;99459.00;;;11.10
19644;BMP180;9970;-36.854;174.870;2023-07-02T09:45:03;99449.00;;;11.00
19644;BMP180;9970;-36.854;174.870;2023-07-02T09:47:44;99454.00;;;11.00
19644;BMP180;9970;-36.854;174.870;2023-07-02T09:50:14;99451.00;;;11.00
19644;BMP180;9970;-36.854;174.870;2023-07-02T09:52:47;99438.00;;;11.00
19644;BMP180;9970;-36.854;174.870;2023-07-02T09:55:21;99425.00;;;11.00
19644;BMP180;9970;-36.854;174.870;2023-07-02T09:57:54;99456.00;;;11.00
19644;BMP180;9970;-36.854;174.870;2023-07-02T10:00:27;99462.00;;;11.00
19644;BMP180;9970;-36.854;174.870;2023-07-02T10:03:02;99458.00;;;11.00
19644;BMP180;9970;-36.854;174.870;2023-07-02T10:05:35;99472.00;;;11.00
19644;BMP180;9970;-36.854;174.870;2023-07-02T10:08:26;99484.00;;;11.00
19644;BMP180;9970;-36.854;174.870;2023-07-02T10:11:32;99484.00;;;10.90
19644;BMP180;9970;-36.854;174.870;2023-07-02T10:14:17;99477.00;;;10.70
19644;BMP180;9970;-36.854;174.870;2023-07-02T10:16:53;99481.00;;;10.70
19644;BMP180;9970;-36.854;174.870;2023-07-02T10:19:51;99483.00;;;10.70
19644;BMP180;9970;-36.854;174.870;2023-07-02T10:22:26;99493.00;;;10.80
19644;BMP180;9970;-36.854;174.870;2023-07-02T10:25:03;99502.00;;;10.80
19644;BMP180;9970;-36.854;174.870;2023-07-02T10:27:40;99508.00;;;10.80
19644;BMP180;9970;-36.854;174.870;2023-07-02T10:30:13;99522.00;;;10.80
19644;BMP180;9970;-36.854;174.870;2023-07-02T10:32:46;99511.00;;;10.80
19644;BMP180;9970;-36.854;174.870;2023-07-02T10:35:23;99513.00;;;10.80
19644;BMP180;9970;-36.854;174.870;2023-07-02T10:37:57;99518.00;;;10.80
19644;BMP180;9970;-36.854;174.870;2023-07-02T10:40:30;99527.00;;;10.80
19644;BMP180;9970;-36.854;174.870;2023-07-02T10:43:04;99536.00;;;10.80
19644;BMP180;9970;-36.854;174.870;2023-07-02T10:45:38;99533.00;;;10.90
19644;BMP180;9970;-36.854;174.870;2023-07-02T10:48:11;99540.00;;;10.80
19644;BMP180;9970;-36.854;174.870;2023-07-02T10:50:45;99538.00;;;10.80
19644;BMP180;9970;-36.854;174.870;2023-07-02T10:53:19;99541.00;;;10.80
19644;BMP180;9970;-36.854;174.870;2023-07-02T10:55:56;99542.00;;;10.80
19644;BMP180;9970;-36.854;174.870;2023-07-02T10:58:30;99549.00;;;10.80
19644;BMP180;9970;-36.854;174.870;2023-07-02T11:01:04;99539.00;;;10.80
19644;BMP180;9970;-36.854;174.870;2023-07-02T11:03:38;99542.00;;;10.80
19644;BMP180;9970;-36.854;174.870;2023-07-02T11:06:15;99550.00;;;10.80
19644;BMP180;9970;-36.854;174.870;2023-07-02T11:08:48;99543.00;;;10.80
19644;BMP180;9970;-36.854;174.870;2023-07-02T11:11:21;99544.00;;;10.80
19644;BMP180;9970;-36.854;174.870;2023-07-02T11:13:55;99549.00;;;10.90
19644;BMP180;9970;-36.854;174.870;2023-07-02T11:16:28;99553.00;;;10.80
19644;BMP180;9970;-36.854;174.870;2023-07-02T11:19:09;99540.00;;;10.90
19644;BMP180;9970;-36.854;174.870;2023-07-02T11:21:50;99537.00;;;10.80
19644;BMP180;9970;-36.854;174.870;2023-07-02T11:24:29;99533.00;;;10.80
19644;BMP180;9970;-36.854;174.870;2023-07-02T11:27:07;99537.00;;;10.80
19644;BMP180;9970;-36.854;174.870;2023-07-02T11:29:41;99534.00;;;10.80
19644;BMP180;9970;-36.854;174.870;2023-07-02T11:32:14;99536.00;;;10.80
19644;BMP180;9970;-36.854;174.870;2023-07-02T11:34:52;99542.00;;;10.80
19644;BMP180;9970;-36.854;174.870;2023-07-02T11:37:23;99546.00;;;10.80
19644;BMP180;9970;-36.854;174.870;2023-07-02T11:39:56;99544.00;;;10.90
19644;BMP180;9970;-36.854;174.870;2023-07-02T11:42:30;99609.00;;;10.80
19644;BMP180;9970;-36.854;174.870;2023-07-02T11:45:09;99596.00;;;10.90
19644;BMP180;9970;-36.854;174.870;2023-07-02T11:47:47;99594.00;;;10.80
19644;BMP180;9970;-36.854;174.870;2023-07-02T11:50:20;99597.00;;;10.80
19644;BMP180;9970;-36.854;174.870;2023-07-02T11:52:55;99596.00;;;10.80
19644;BMP180;9970;-36.854;174.870;2023-07-02T11:55:33;99589.00;;;10.80
19644;BMP180;9970;-36.854;174.870;2023-07-02T11:58:06;99589.00;;;10.80
19644;BMP180;9970;-36.854;174.870;2023-07-02T12:00:39;99588.00;;;10.80
19644;BMP180;9970;-36.854;174.870;2023-07-02T12:03:12;99583.00;;;10.80
19644;BMP180;9970;-36.854;174.870;2023-07-02T12:05:45;99584.00;;;10.80
19644;BMP180;9970;-36.854;174.870;2023-07-02T12:08:19;99581.00;;;10.80
19644;BMP180;9970;-36.854;174.870;2023-07-02T12:10:52;99575.00;;;10.80
19644;BMP180;9970;-36.854;174.870;2023-07-02T12:13:25;99576.00;;;10.80
19644;BMP180;9970;-36.854;174.870;2023-07-02T12:15:58;99582.00;;;10.80
19644;BMP180;9970;-36.854;174.870;2023-07-02T12:18:32;99588.00;;;10.80
19644;BMP180;9970;-36.854;174.870;2023-07-02T12:21:05;99613.00;;;10.80
19644;BMP180;9970;-36.854;174.870;2023-07-02T12:23:38;99600.00;;;10.80
19644;BMP180;9970;-36.854;174.870;2023-07-02T12:26:11;99612.00;;;10.80
19644;BMP180;9970;-36.854;174.870;2023-07-02T12:28:44;99594.00;;;10.80
19644;BMP180;9970;-36.854;174.870;2023-07-02T12:31:17;99613.00;;;10.80
19644;BMP180;9970;-36.854;174.870;2023-07-02T12:33:51;99605.00;;;10.80
19644;BMP180;9970;-36.854;174.870;2023-07-02T12:36:24;99604.00;;;10.80
19644;BMP180;9970;-36.854;174.870;2023-07-02T12:38:58;99598.00;;;10.70
19644;BMP180;9970;-36.854;174.870;2023-07-02T12:41:31;99607.00;;;10.70
19644;BMP180;9970;-36.854;174.870;2023-07-02T12:44:04;99605.00;;;10.70
19644;BMP180;9970;-36.854;174.870;2023-07-02T12:46:37;99620.00;;;10.70
19644;BMP180;9970;-36.854;174.870;2023-07-02T12:49:10;99634.00;;;10.70
19644;BMP180;9970;-36.854;174.870;2023-07-02T12:51:42;99638.00;;;10.70
19644;BMP180;9970;-36.854;174.870;2023-07-02T12:54:16;99632.00;;;10.70
19644;BMP180;9970;-36.854;174.870;2023-07-02T12:56:49;99630.00;;;10.70
19644;BMP180;9970;-36.854;174.870;2023-07-02T12:59:22;99624.00;;;10.70
19644;BMP180;9970;-36.854;174.870;2023-07-02T13:01:55;99627.00;;;10.70
19644;BMP180;9970;-36.854;174.870;2023-07-02T13:04:32;99624.00;;;10.70
19644;BMP180;9970;-36.854;174.870;2023-07-02T13:07:06;99635.00;;;10.70
19644;BMP180;9970;-36.854;174.870;2023-07-02T13:09:39;99638.00;;;10.70
19644;BMP180;9970;-36.854;174.870;2023-07-02T13:12:12;99657.00;;;10.70
19644;BMP180;9970;-36.854;174.870;2023-07-02T13:14:50;99661.00;;;10.60
19644;BMP180;9970;-36.854;174.870;2023-07-02T13:17:24;99655.00;;;10.60
19644;BMP180;9970;-36.854;174.870;2023-07-02T13:19:58;99662.00;;;10.70
19644;BMP180;9970;-36.854;174.870;2023-07-02T13:22:31;99661.00;;;10.70
19644;BMP180;9970;-36.854;174.870;2023-07-02T13:25:05;99668.00;;;10.70
19644;BMP180;9970;-36.854;174.870;2023-07-02T13:27:38;99656.00;;;10.60
19644;BMP180;9970;-36.854;174.870;2023-07-02T13:30:11;99661.00;;;10.60
19644;BMP180;9970;-36.854;174.870;2023-07-02T13:32:44;99652.00;;;10.60
19644;BMP180;9970;-36.854;174.870;2023-07-02T13:35:18;99662.00;;;10.60
19644;BMP180;9970;-36.854;174.870;2023-07-02T13:37:51;99660.00;;;10.60
19644;BMP180;9970;-36.854;174.870;2023-07-02T13:40:25;99671.00;;;10.60
19644;BMP180;9970;-36.854;174.870;2023-07-02T13:42:58;99672.00;;;10.60
19644;BMP180;9970;-36.854;174.870;2023-07-02T13:45:31;99655.00;;;10.60
19644;BMP180;9970;-36.854;174.870;2023-07-02T13:48:05;99682.00;;;10.60
19644;BMP180;9970;-36.854;174.870;2023-07-02T13:50:38;99674.00;;;10.50
19644;BMP180;9970;-36.854;174.870;2023-07-02T13:53:11;99680.00;;;10.50
19644;BMP180;9970;-36.854;174.870;2023-07-02T13:55:45;99685.00;;;10.50
19644;BMP180;9970;-36.854;174.870;2023-07-02T13:58:19;99682.00;;;10.50
19644;BMP180;9970;-36.854;174.870;2023-07-02T14:00:54;99689.00;;;10.50
19644;BMP180;9970;-36.854;174.870;2023-07-02T14:03:27;99685.00;;;10.50
19644;BMP180;9970;-36.854;174.870;2023-07-02T14:06:00;99683.00;;;10.50
19644;BMP180;9970;-36.854;174.870;2023-07-02T14:08:33;99677.00;;;10.50
19644;BMP180;9970;-36.854;174.870;2023-07-02T14:11:08;99684.00;;;10.50
19644;BMP180;9970;-36.854;174.870;2023-07-02T14:13:42;99673.00;;;10.50
19644;BMP180;9970;-36.854;174.870;2023-07-02T14:16:15;99663.00;;;10.50
19644;BMP180;9970;-36.854;174.870;2023-07-02T14:18:49;99647.00;;;10.50
19644;BMP180;9970;-36.854;174.870;2023-07-02T14:21:22;99650.00;;;10.50
19644;BMP180;9970;-36.854;174.870;2023-07-02T14:24:00;99660.00;;;10.50
19644;BMP180;9970;-36.854;174.870;2023-07-02T14:26:34;99672.00;;;10.50
19644;BMP180;9970;-36.854;174.870;2023-07-02T14:29:08;99688.00;;;10.50
19644;BMP180;9970;-36.854;174.870;2023-07-02T14:31:41;99709.00;;;10.50
19644;BMP180;9970;-36.854;174.870;2023-07-02T14:34:15;99723.00;;;10.50